Time;durP1;ratioP1;P1;durP2;ratioP2;P2;SDS_P1;SDS_P2;PMS_P1;PMS_P2;Temp;Humidity;BMP_temperature;BMP_pressure;BME280_temperature;BME280_humidity;BME280_pressure;Samples;Min_cycle;Max_cycle;Signal;HPM_P1;HPM_P2
2021/06/27 00:01:01;;;;;;;3.85;2.50;;;19.60;99.90;;;;;;5073716;28;20464;-80
2021/06/27 00:03:26;;;;;;;3.42;2.58;;;19.60;99.90;;;;;;5072479;28;20020;-79
2021/06/27 00:05:52;;;;;;;4.50;3.00;;;19.60;99.90;;;;;;5073538;28;20032;-78
2021/06/27 00:08:18;;;;;;;3.65;2.55;;;19.50;99.90;;;;;;5072198;28;20043;-77
2021/06/27 00:10:45;;;;;;;2.85;2.50;;;19.50;99.90;;;;;;5072077;28;20070;-78
2021/06/27 00:13:11;;;;;;;3.35;2.60;;;19.50;99.90;;;;;;5073168;28;20056;-78
2021/06/27 00:15:40;;;;;;;3.30;2.83;;;19.40;99.90;;;;;;5072203;28;20421;-78
2021/06/27 00:18:08;;;;;;;5.63;2.60;;;19.40;99.90;;;;;;5072067;28;20028;-78
2021/06/27 00:20:35;;;;;;;3.17;2.75;;;19.40;99.90;;;;;;5073091;28;20020;-77
2021/06/27 00:23:01;;;;;;;2.80;2.50;;;19.40;99.90;;;;;;5072103;28;20353;-77
2021/06/27 00:25:28;;;;;;;3.00;2.70;;;19.30;99.90;;;;;;5073146;28;20032;-78
2021/06/27 00:27:55;;;;;;;3.10;2.50;;;19.20;99.90;;;;;;5073120;28;20452;-77
2021/06/27 00:30:22;;;;;;;2.88;2.58;;;19.20;99.90;;;;;;5073092;28;20024;-82
2021/06/27 00:32:48;;;;;;;4.13;2.58;;;19.20;99.90;;;;;;5073125;28;20023;-78
2021/06/27 00:35:17;;;;;;;2.53;2.33;;;19.20;99.90;;;;;;5071721;28;20021;-78
2021/06/27 00:37:43;;;;;;;3.30;2.40;;;19.10;99.90;;;;;;5071766;28;20041;-77
2021/06/27 00:40:12;;;;;;;4.05;2.70;;;19.10;99.90;;;;;;5071664;28;20117;-80
2021/06/27 00:42:38;;;;;;;5.20;2.90;;;18.90;99.90;;;;;;5070840;28;20162;-78
2021/06/27 00:45:07;;;;;;;3.25;2.53;;;19.00;99.90;;;;;;5072890;28;20063;-78
2021/06/27 00:47:35;;;;;;;4.97;2.83;;;18.90;99.90;;;;;;5071555;28;20379;-79
2021/06/27 00:50:01;;;;;;;2.97;2.63;;;18.80;99.90;;;;;;5071462;28;20088;-77
2021/06/27 00:52:26;;;;;;;3.05;2.75;;;18.70;99.90;;;;;;5070727;28;20115;-78
2021/06/27 00:54:52;;;;;;;4.15;2.60;;;18.60;99.90;;;;;;5072826;28;20491;-78
2021/06/27 00:57:19;;;;;;;2.65;2.45;;;18.60;99.90;;;;;;5072764;28;20024;-80
2021/06/27 00:59:45;;;;;;;5.47;2.97;;;18.60;99.90;;;;;;5071155;28;20029;-78
2021/06/27 01:02:11;;;;;;;3.22;2.75;;;18.60;99.90;;;;;;5071189;28;20074;-78
2021/06/27 01:04:37;;;;;;;3.20;2.90;;;18.60;99.90;;;;;;5071959;28;20025;-86
2021/06/27 01:07:04;;;;;;;5.93;3.10;;;18.60;99.90;;;;;;5071501;28;20460;-78
2021/06/27 01:09:30;;;;;;;6.70;3.42;;;18.50;99.90;;;;;;5072400;28;20094;-78
2021/06/27 01:11:57;;;;;;;5.18;3.50;;;18.40;99.90;;;;;;5071293;28;20021;-87
2021/06/27 01:14:23;;;;;;;3.10;2.80;;;18.40;99.90;;;;;;5072592;28;20052;-78
2021/06/27 01:16:49;;;;;;;4.32;2.75;;;18.40;99.90;;;;;;5071226;28;20540;-88
2021/06/27 01:19:15;;;;;;;3.05;2.85;;;18.30;99.90;;;;;;5072816;28;20021;-77
2021/06/27 01:21:41;;;;;;;5.38;3.40;;;18.40;99.90;;;;;;5072518;28;20486;-78
2021/06/27 01:24:08;;;;;;;3.83;2.95;;;18.40;99.90;;;;;;5071960;28;20037;-77
2021/06/27 01:26:33;;;;;;;5.13;3.20;;;18.40;99.90;;;;;;5072704;28;20032;-78
2021/06/27 01:28:59;;;;;;;4.05;2.97;;;18.40;99.90;;;;;;5072199;28;20036;-79
2021/06/27 01:31:26;;;;;;;4.40;2.88;;;18.40;99.90;;;;;;5070924;28;20371;-78
2021/06/27 01:33:53;;;;;;;4.00;3.10;;;18.50;99.90;;;;;;5070898;28;20021;-78
2021/06/27 01:36:18;;;;;;;4.65;3.30;;;18.40;99.90;;;;;;5072249;28;20040;-78
2021/06/27 01:38:44;;;;;;;5.85;3.10;;;18.40;99.90;;;;;;5071005;28;20029;-79
2021/06/27 01:41:10;;;;;;;3.90;3.50;;;18.40;99.90;;;;;;5072003;28;20074;-77
2021/06/27 01:43:35;;;;;;;3.67;3.15;;;18.30;99.90;;;;;;5070687;28;20028;-79
2021/06/27 01:46:02;;;;;;;5.65;3.17;;;18.30;99.90;;;;;;5070766;28;20517;-78
2021/06/27 01:48:33;;;;;;;4.28;3.17;;;18.30;99.90;;;;;;5072001;28;20033;-78
2021/06/27 01:51:02;;;;;;;5.05;3.20;;;18.30;99.90;;;;;;5070700;28;20483;-77
2021/06/27 01:53:30;;;;;;;5.00;3.42;;;18.30;99.90;;;;;;5072001;28;20147;-78
2021/06/27 01:56:05;;;;;;;4.90;3.75;;;18.20;99.90;;;;;;5070450;28;20426;-78
2021/06/27 01:58:40;;;;;;;6.07;3.65;;;18.10;99.90;;;;;;5070745;28;20078;-77
2021/06/27 02:01:11;;;;;;;5.65;3.80;;;18.10;99.90;;;;;;5070519;28;20086;-77
2021/06/27 02:03:37;;;;;;;4.53;4.03;;;18.10;99.90;;;;;;5072200;28;20049;-78
2021/06/27 02:06:04;;;;;;;4.88;3.75;;;18.10;99.90;;;;;;5074347;28;20440;-78
2021/06/27 02:08:34;;;;;;;6.32;3.67;;;18.00;99.90;;;;;;5075441;28;20480;-76
2021/06/27 02:11:01;;;;;;;6.60;4.20;;;17.90;99.90;;;;;;5075527;28;20514;-77
2021/06/27 02:13:27;;;;;;;6.03;4.10;;;17.90;99.90;;;;;;5074082;28;20044;-78
2021/06/27 02:15:53;;;;;;;5.47;4.28;;;17.90;99.90;;;;;;5074051;28;20090;-78
2021/06/27 02:18:39;;;;;;;4.30;3.90;;;17.90;99.90;;;;;;5075723;28;20025;-78
2021/06/27 02:21:12;;;;;;;5.50;4.28;;;17.90;99.90;;;;;;5074400;28;20133;-78
2021/06/27 02:23:39;;;;;;;7.70;4.03;;;18.00;99.90;;;;;;5073869;28;20111;-79
2021/06/27 02:26:05;;;;;;;5.53;4.13;;;18.00;99.90;;;;;;5074183;28;20025;-78
2021/06/27 02:28:32;;;;;;;8.02;4.20;;;18.10;99.90;;;;;;5075347;28;20088;-78
2021/06/27 02:30:58;;;;;;;4.88;3.95;;;18.10;99.90;;;;;;5073916;28;20021;-77
2021/06/27 02:33:24;;;;;;;5.15;3.88;;;18.00;99.90;;;;;;5073713;28;20024;-78
2021/06/27 02:35:50;;;;;;;2.65;2.13;;;18.10;99.90;;;;;;5073901;28;20028;-78
2021/06/27 02:38:17;;;;;;;2.85;2.65;;;18.10;99.90;;;;;;5074103;28;20611;-78
2021/06/27 02:40:43;;;;;;;2.70;2.50;;;18.20;99.90;;;;;;5074117;28;20025;-78
2021/06/27 02:43:10;;;;;;;4.28;2.17;;;18.40;99.90;;;;;;5073738;28;20085;-80
2021/06/27 02:45:36;;;;;;;2.17;1.92;;;18.60;99.90;;;;;;5073754;28;20073;-79
2021/06/27 02:48:02;;;;;;;2.60;1.80;;;18.70;99.90;;;;;;5073756;28;20164;-79
2021/06/27 02:50:27;;;;;;;2.88;1.63;;;18.90;99.90;;;;;;5073820;28;20487;-78
2021/06/27 02:52:53;;;;;;;4.03;1.90;;;19.00;99.90;;;;;;5074005;28;20158;-79
2021/06/27 02:55:19;;;;;;;4.95;2.10;;;19.10;99.90;;;;;;5073553;28;20349;-79
2021/06/27 02:57:45;;;;;;;2.90;1.80;;;19.10;99.90;;;;;;5073610;28;20108;-79
2021/06/27 03:00:15;;;;;;;2.67;1.75;;;19.20;99.90;;;;;;5073727;28;20103;-89
2021/06/27 03:02:41;;;;;;;2.70;2.22;;;19.20;99.90;;;;;;5074055;28;20021;-80
2021/06/27 03:05:08;;;;;;;2.40;1.73;;;19.30;99.90;;;;;;5075488;28;20395;-79
2021/06/27 03:07:33;;;;;;;2.42;1.80;;;19.30;99.90;;;;;;5072998;28;20013;-78
2021/06/27 03:09:59;;;;;;;2.05;1.63;;;19.40;99.90;;;;;;5073758;28;20493;-79
2021/06/27 03:12:25;;;;;;;3.63;2.45;;;19.30;99.90;;;;;;5073512;28;20031;-79
2021/06/27 03:14:50;;;;;;;1.63;1.20;;;19.30;99.90;;;;;;5074196;28;20068;-78
2021/06/27 03:17:16;;;;;;;3.10;1.98;;;19.30;99.90;;;;;;5073347;28;20028;-79
2021/06/27 03:19:42;;;;;;;2.22;1.80;;;19.30;99.90;;;;;;5073362;28;20119;-80
2021/06/27 03:22:07;;;;;;;11.65;8.80;;;19.30;99.90;;;;;;5073355;28;20023;-79
2021/06/27 03:24:33;;;;;;;23.98;17.60;;;19.30;99.90;;;;;;5074879;28;20082;-79
2021/06/27 03:26:59;;;;;;;22.48;15.57;;;19.30;99.90;;;;;;5074334;28;20017;-78
2021/06/27 03:29:25;;;;;;;9.00;6.32;;;19.20;99.90;;;;;;5072962;28;20115;-78
2021/06/27 03:31:51;;;;;;;13.30;8.82;;;19.20;99.90;;;;;;5073046;28;20415;-85
2021/06/27 03:34:17;;;;;;;18.98;12.82;;;19.20;99.90;;;;;;5073256;28;20487;-79
2021/06/27 03:36:43;;;;;;;2.35;1.80;;;19.10;99.90;;;;;;5073394;28;20052;-79
2021/06/27 03:39:11;;;;;;;26.50;16.67;;;19.10;99.90;;;;;;5074677;28;20032;-79
2021/06/27 03:41:41;;;;;;;21.65;16.00;;;19.10;99.90;;;;;;5073063;28;20111;-78
2021/06/27 03:44:07;;;;;;;5.68;2.20;;;19.10;99.90;;;;;;5072949;28;20024;-78
2021/06/27 03:46:33;;;;;;;4.90;4.38;;;19.00;99.90;;;;;;5072839;28;20379;-79
2021/06/27 03:48:59;;;;;;;6.88;4.20;;;19.00;99.90;;;;;;5074175;28;20543;-78
2021/06/27 03:51:25;;;;;;;2.63;1.65;;;18.90;99.90;;;;;;5074077;28;20115;-79
2021/06/27 03:53:51;;;;;;;4.78;1.88;;;18.90;99.90;;;;;;5073063;28;20114;-79
2021/06/27 03:56:17;;;;;;;6.38;4.30;;;18.90;99.90;;;;;;5072720;28;20020;-87
2021/06/27 03:58:45;;;;;;;3.03;1.52;;;18.90;99.90;;;;;;5072699;28;20428;-78
2021/06/27 04:01:10;;;;;;;9.23;6.65;;;19.00;99.90;;;;;;5072355;28;20016;-79
2021/06/27 04:03:36;;;;;;;5.35;3.10;;;19.00;99.90;;;;;;5073744;28;20494;-84
2021/06/27 04:06:03;;;;;;;6.35;4.80;;;18.90;99.90;;;;;;5073435;28;20072;-83
2021/06/27 04:08:29;;;;;;;5.78;4.78;;;19.00;99.90;;;;;;5072214;28;20116;-79
2021/06/27 04:10:58;;;;;;;6.28;3.50;;;19.00;99.90;;;;;;5072435;28;20119;-79
2021/06/27 04:13:25;;;;;;;4.93;2.35;;;19.00;99.90;;;;;;5071910;28;20564;-78
2021/06/27 04:15:50;;;;;;;3.28;1.40;;;19.00;99.90;;;;;;5071859;28;20067;-78
2021/06/27 04:18:16;;;;;;;1.98;1.30;;;19.10;99.90;;;;;;5072729;28;20028;-84
2021/06/27 04:20:42;;;;;;;2.15;1.13;;;19.10;99.90;;;;;;5072635;28;20017;-79
2021/06/27 04:23:07;;;;;;;4.45;2.17;;;19.20;99.90;;;;;;5072159;28;20124;-78
2021/06/27 04:25:35;;;;;;;3.70;3.03;;;19.30;99.90;;;;;;5071378;28;20029;-78
2021/06/27 04:28:01;;;;;;;1.52;1.20;;;19.30;99.90;;;;;;5072055;28;20024;-82
2021/06/27 04:30:26;;;;;;;1.58;1.45;;;19.40;99.90;;;;;;5072595;28;20028;-78
2021/06/27 04:32:52;;;;;;;2.28;1.30;;;19.40;99.90;;;;;;5071994;28;20080;-87
2021/06/27 04:35:18;;;;;;;1.27;1.00;;;20.90;99.90;;;;;;5073387;28;20024;-87
2021/06/27 04:37:43;;;;;;;2.83;1.35;;;21.80;99.90;;;;;;5073149;28;20024;-83
2021/06/27 04:40:09;;;;;;;1.33;0.70;;;21.60;99.90;;;;;;5072034;28;20029;-81
2021/06/27 04:42:35;;;;;;;1.10;0.90;;;21.40;99.90;;;;;;5071977;28;20021;-79
2021/06/27 04:45:01;;;;;;;1.90;0.80;;;21.30;99.90;;;;;;5072083;28;20028;-79
2021/06/27 04:47:27;;;;;;;1.30;0.70;;;21.10;99.90;;;;;;5075593;28;20029;-78
2021/06/27 04:49:53;;;;;;;0.98;0.80;;;21.10;99.90;;;;;;5072903;28;20059;-78
2021/06/27 04:52:18;;;;;;;2.35;0.60;;;21.20;99.90;;;;;;5073110;28;20085;-78
2021/06/27 04:54:44;;;;;;;2.25;0.80;;;21.10;99.90;;;;;;5072738;28;20024;-78
2021/06/27 04:57:10;;;;;;;3.45;1.38;;;21.40;99.90;;;;;;5072929;28;20086;-85
2021/06/27 04:59:35;;;;;;;2.33;1.48;;;21.30;99.90;;;;;;5074212;28;20024;-84
2021/06/27 05:02:01;;;;;;;1.85;1.10;;;21.00;99.90;;;;;;5073073;28;20031;-78
2021/06/27 05:04:26;;;;;;;1.85;0.70;;;21.20;99.90;;;;;;5072344;28;20028;-79
2021/06/27 05:06:52;;;;;;;0.90;0.70;;;21.10;99.90;;;;;;5072324;28;20025;-84
2021/06/27 05:09:18;;;;;;;3.10;0.70;;;21.40;99.90;;;;;;5072171;28;20543;-79
2021/06/27 05:11:43;;;;;;;0.93;0.80;;;21.50;99.90;;;;;;5071420;28;20024;-79
2021/06/27 05:14:09;;;;;;;2.83;0.90;;;21.70;99.90;;;;;;5072559;28;20106;-80
2021/06/27 05:16:35;;;;;;;1.73;0.90;;;21.60;99.90;;;;;;5072610;28;20081;-79
2021/06/27 05:19:00;;;;;;;2.83;1.02;;;21.90;99.90;;;;;;5071550;28;20502;-80
2021/06/27 05:21:26;;;;;;;1.15;0.80;;;21.60;99.90;;;;;;5072502;28;20020;-79
2021/06/27 05:23:51;;;;;;;3.92;1.15;;;21.40;99.90;;;;;;5071461;28;20026;-79
2021/06/27 05:26:17;;;;;;;3.20;0.93;;;21.20;99.90;;;;;;5072652;28;20032;-79
2021/06/27 05:28:43;;;;;;;1.50;0.68;;;21.20;99.90;;;;;;5072686;28;20108;-78
2021/06/27 05:31:08;;;;;;;1.20;0.90;;;21.30;99.90;;;;;;5071014;28;20032;-80
2021/06/27 05:33:34;;;;;;;1.98;1.00;;;21.60;99.90;;;;;;5070634;28;20032;-79
2021/06/27 05:36:00;;;;;;;2.42;0.90;;;21.70;99.90;;;;;;5071110;28;20023;-85
2021/06/27 05:38:25;;;;;;;0.75;0.63;;;21.90;99.90;;;;;;5074015;28;20132;-78
2021/06/27 05:40:52;;;;;;;2.22;0.85;;;21.80;99.90;;;;;;5075038;28;20086;-80
2021/06/27 05:43:18;;;;;;;2.08;0.82;;;21.90;99.90;;;;;;5076082;28;20050;-80
2021/06/27 05:45:43;;;;;;;2.15;0.82;;;22.20;99.90;;;;;;5076187;28;20032;-78
2021/06/27 05:48:09;;;;;;;0.90;0.73;;;22.30;99.60;;;;;;5074809;28;20032;-78
2021/06/27 05:50:35;;;;;;;0.88;0.60;;;22.50;99.50;;;;;;5074670;28;20119;-79
2021/06/27 05:53:00;;;;;;;2.47;0.75;;;22.30;99.60;;;;;;5075580;28;20099;-79
2021/06/27 05:55:26;;;;;;;2.15;0.50;;;22.30;99.40;;;;;;5076745;28;20539;-86
2021/06/27 05:57:52;;;;;;;1.77;0.80;;;22.10;99.60;;;;;;5075647;28;20036;-78
2021/06/27 06:00:19;;;;;;;1.35;0.70;;;21.90;99.90;;;;;;5075401;28;20070;-77
2021/06/27 06:02:45;;;;;;;2.45;0.80;;;22.10;99.90;;;;;;5076112;28;20035;-87
2021/06/27 06:05:11;;;;;;;2.17;0.60;;;21.90;99.90;;;;;;5077067;28;20032;-77
2021/06/27 06:07:36;;;;;;;1.60;1.00;;;21.70;99.90;;;;;;5076770;28;20024;-85
2021/06/27 06:10:04;;;;;;;1.52;0.98;;;21.60;99.90;;;;;;5075929;28;20040;-87
2021/06/27 06:12:29;;;;;;;1.35;0.93;;;21.60;99.90;;;;;;5075107;28;20121;-84
2021/06/27 06:14:55;;;;;;;1.38;0.80;;;21.50;99.90;;;;;;5075651;28;20479;-85
2021/06/27 06:17:20;;;;;;;1.77;0.80;;;21.60;99.90;;;;;;5076003;28;20044;-86
2021/06/27 06:19:51;;;;;;;3.22;0.80;;;21.60;99.90;;;;;;5075865;28;20025;-87
2021/06/27 06:22:17;;;;;;;3.80;0.80;;;21.60;99.90;;;;;;5075757;28;20024;-86
2021/06/27 06:24:42;;;;;;;2.78;0.70;;;21.70;99.90;;;;;;5075976;28;20035;-81
2021/06/27 06:27:08;;;;;;;2.78;0.80;;;21.70;99.90;;;;;;5075943;28;20020;-83
2021/06/27 06:29:34;;;;;;;2.75;0.98;;;21.80;99.90;;;;;;5076704;28;20103;-87
2021/06/27 06:32:00;;;;;;;2.10;0.70;;;22.00;99.90;;;;;;5075446;28;20024;-80
2021/06/27 06:34:26;;;;;;;1.92;0.80;;;22.30;99.90;;;;;;5075545;28;20025;-86
2021/06/27 06:36:51;;;;;;;1.92;0.80;;;22.60;99.90;;;;;;5076794;28;20064;-86
2021/06/27 06:39:17;;;;;;;2.90;0.60;;;22.90;99.70;;;;;;5075155;28;20028;-86
2021/06/27 06:41:43;;;;;;;1.30;0.85;;;23.30;99.80;;;;;;5074851;28;20027;-80
2021/06/27 06:44:08;;;;;;;0.93;0.68;;;23.60;97.90;;;;;;5074961;28;20040;-85
2021/06/27 06:46:34;;;;;;;1.23;0.60;;;24.00;96.70;;;;;;5075237;28;20024;-85
2021/06/27 06:49:00;;;;;;;2.88;0.90;;;24.30;96.00;;;;;;5073925;28;20090;-78
2021/06/27 06:51:26;;;;;;;2.63;0.50;;;24.40;94.10;;;;;;5075191;28;20027;-87
2021/06/27 06:53:52;;;;;;;1.17;0.43;;;24.60;92.70;;;;;;5074664;28;20467;-87
2021/06/27 06:56:19;;;;;;;0.75;0.40;;;24.70;92.20;;;;;;5074437;28;20031;-85
2021/06/27 06:58:45;;;;;;;1.00;0.60;;;24.50;91.80;;;;;;5073934;28;20165;-84
2021/06/27 07:01:11;;;;;;;1.13;0.50;;;24.60;92.90;;;;;;5073644;28;20070;-79
2021/06/27 07:03:38;;;;;;;0.57;0.30;;;24.60;91.30;;;;;;5073186;28;20028;-79
2021/06/27 07:06:04;;;;;;;0.80;0.50;;;24.50;91.20;;;;;;5073046;28;20021;-79
2021/06/27 07:08:30;;;;;;;0.90;0.50;;;24.40;91.00;;;;;;5073072;28;20123;-79
2021/06/27 07:10:56;;;;;;;1.52;0.60;;;24.40;91.20;;;;;;5072978;28;20539;-78
2021/06/27 07:13:22;;;;;;;2.60;0.43;;;24.20;91.50;;;;;;5074093;28;20560;-78
2021/06/27 07:15:48;;;;;;;1.75;0.40;;;24.00;92.40;;;;;;5074215;28;20021;-78
2021/06/27 07:18:14;;;;;;;0.77;0.40;;;24.10;91.90;;;;;;5074422;28;20081;-79
2021/06/27 07:20:40;;;;;;;1.95;0.60;;;24.20;91.80;;;;;;5072798;28;20486;-78
2021/06/27 07:23:05;;;;;;;3.38;2.55;;;24.20;91.60;;;;;;5072804;28;20032;-79
2021/06/27 07:25:31;;;;;;;2.92;1.70;;;24.30;91.10;;;;;;5074075;28;20031;-78
2021/06/27 07:27:57;;;;;;;2.67;0.60;;;24.40;91.40;;;;;;5072639;28;20464;-79
2021/06/27 07:30:23;;;;;;;1.48;1.00;;;24.50;90.40;;;;;;5072489;28;20035;-78
2021/06/27 07:32:48;;;;;;;1.35;0.98;;;24.60;90.40;;;;;;5073969;28;20107;-78
2021/06/27 07:35:14;;;;;;;1.85;0.90;;;24.90;91.10;;;;;;5072732;28;20062;-78
2021/06/27 07:37:40;;;;;;;1.63;1.20;;;24.90;91.80;;;;;;5072798;28;20025;-88
2021/06/27 07:40:06;;;;;;;1.45;0.70;;;25.00;90.20;;;;;;5072480;28;20029;-78
2021/06/27 07:42:32;;;;;;;3.25;0.80;;;24.90;90.00;;;;;;5072410;28;20028;-77
2021/06/27 07:44:57;;;;;;;1.20;0.70;;;24.90;90.40;;;;;;5072425;28;20035;-79
2021/06/27 07:47:23;;;;;;;2.80;0.50;;;25.10;90.80;;;;;;5072350;28;20372;-78
2021/06/27 07:49:49;;;;;;;2.03;0.60;;;25.00;88.80;;;;;;5072487;28;20032;-78
2021/06/27 07:52:15;;;;;;;1.25;0.60;;;24.90;89.60;;;;;;5072336;28;20114;-80
2021/06/27 07:54:40;;;;;;;1.52;0.60;;;25.10;87.90;;;;;;5073510;28;20032;-77
2021/06/27 07:57:07;;;;;;;0.75;0.40;;;25.30;87.50;;;;;;5072453;28;20414;-80
2021/06/27 07:59:32;;;;;;;1.30;0.60;;;25.50;89.60;;;;;;5072243;28;20517;-78
2021/06/27 08:01:58;;;;;;;0.80;0.50;;;25.40;87.10;;;;;;5071079;28;20032;-79
2021/06/27 08:04:24;;;;;;;2.40;0.50;;;25.60;88.60;;;;;;5073496;28;20024;-79
2021/06/27 08:06:50;;;;;;;2.85;0.57;;;26.00;85.90;;;;;;5071999;28;20120;-78
2021/06/27 08:09:15;;;;;;;0.75;0.55;;;26.00;84.20;;;;;;5071845;28;20075;-79
2021/06/27 08:11:41;;;;;;;1.25;0.75;;;26.30;88.20;;;;;;5072929;28;20031;-80
2021/06/27 08:14:08;;;;;;;2.83;0.65;;;26.20;87.00;;;;;;5071927;28;20053;-78
2021/06/27 08:16:34;;;;;;;1.35;0.60;;;26.40;85.50;;;;;;5071946;28;20030;-81
2021/06/27 08:19:00;;;;;;;0.57;0.40;;;26.40;83.70;;;;;;5071704;28;20029;-77
2021/06/27 08:21:26;;;;;;;1.10;0.50;;;26.30;78.90;;;;;;5071599;28;20017;-79
2021/06/27 08:23:51;;;;;;;1.35;0.70;;;26.30;84.40;;;;;;5071883;28;20032;-85
2021/06/27 08:26:20;;;;;;;0.85;0.38;;;26.50;80.50;;;;;;5071919;28;20115;-79
2021/06/27 08:28:45;;;;;;;1.58;0.70;;;26.80;83.50;;;;;;5071439;28;20032;-79
2021/06/27 08:31:11;;;;;;;1.27;0.57;;;26.80;79.90;;;;;;5071526;28;20024;-80
2021/06/27 08:33:37;;;;;;;0.90;0.60;;;26.60;80.60;;;;;;5072563;28;20021;-82
2021/06/27 08:36:03;;;;;;;1.60;0.50;;;26.40;78.80;;;;;;5071161;28;20391;-78
2021/06/27 08:38:28;;;;;;;3.05;0.65;;;26.30;80.30;;;;;;5071367;28;20024;-79
2021/06/27 08:40:56;;;;;;;0.85;0.60;;;26.50;80.70;;;;;;5072511;28;20024;-79
2021/06/27 08:43:28;;;;;;;1.52;0.60;;;26.80;78.80;;;;;;5071338;28;20024;-79
2021/06/27 08:45:54;;;;;;;0.68;0.38;;;26.70;79.00;;;;;;5071490;28;20020;-78
2021/06/27 08:48:22;;;;;;;0.80;0.50;;;26.40;76.90;;;;;;5071207;28;20043;-87
2021/06/27 08:50:50;;;;;;;1.13;0.40;;;26.00;76.70;;;;;;5070645;28;20016;-77
2021/06/27 08:53:17;;;;;;;0.70;0.47;;;25.70;83.80;;;;;;5070832;28;20386;-80
2021/06/27 08:55:42;;;;;;;0.70;0.50;;;25.60;82.00;;;;;;5071504;28;20421;-79
2021/06/27 08:58:12;;;;;;;0.95;0.52;;;25.80;78.40;;;;;;5072590;28;20025;-79
2021/06/27 09:00:38;;;;;;;0.88;0.55;;;26.00;79.10;;;;;;5061376;28;20116;-77
2021/06/27 09:03:10;;;;;;;0.90;0.50;;;26.20;77.40;;;;;;5051675;28;20025;-79
2021/06/27 09:05:38;;;;;;;0.90;0.60;;;26.30;77.00;;;;;;5051342;28;20098;-78
2021/06/27 09:08:14;;;;;;;1.40;0.50;;;26.50;78.70;;;;;;5051894;28;20031;-82
2021/06/27 09:10:40;;;;;;;0.73;0.40;;;26.70;76.80;;;;;;5051079;28;20472;-78
2021/06/27 09:13:06;;;;;;;1.02;0.50;;;26.90;75.00;;;;;;5050624;28;20045;-78
2021/06/27 09:15:43;;;;;;;1.00;0.50;;;27.10;73.70;;;;;;5050971;28;20035;-78
2021/06/27 09:18:15;;;;;;;1.60;0.63;;;27.20;73.10;;;;;;5051325;28;20151;-79
2021/06/27 09:20:53;;;;;;;0.75;0.32;;;27.40;70.70;;;;;;5050802;28;20024;-77
2021/06/27 09:23:32;;;;;;;1.38;0.43;;;27.60;71.10;;;;;;5050603;28;20486;-78
2021/06/27 09:25:58;;;;;;;1.58;0.55;;;27.80;72.10;;;;;;5051988;28;20079;-76
2021/06/27 09:28:23;;;;;;;1.35;0.50;;;27.90;68.70;;;;;;5052542;28;20495;-80
2021/06/27 09:30:55;;;;;;;1.92;0.55;;;28.00;67.90;;;;;;5051300;28;20473;-79
2021/06/27 09:33:23;;;;;;;0.88;0.50;;;28.00;65.80;;;;;;5051159;28;20120;-78
2021/06/27 09:35:55;;;;;;;0.90;0.50;;;27.90;65.10;;;;;;5051021;28;20028;-79
2021/06/27 09:38:28;;;;;;;1.27;0.63;;;27.90;67.60;;;;;;5052672;28;20040;-78
2021/06/27 09:40:57;;;;;;;1.55;0.65;;;28.20;66.60;;;;;;5052603;28;20528;-78
2021/06/27 09:43:23;;;;;;;0.98;0.60;;;28.30;64.40;;;;;;5052989;28;20025;-84
2021/06/27 09:45:52;;;;;;;0.98;0.63;;;28.30;66.10;;;;;;5052651;28;20033;-80
2021/06/27 09:48:18;;;;;;;1.67;0.70;;;28.40;66.20;;;;;;5051573;28;20060;-83
2021/06/27 09:50:45;;;;;;;1.90;0.60;;;28.20;65.70;;;;;;5051237;28;20503;-86
2021/06/27 09:53:41;;;;;;;1.70;0.70;;;28.30;66.10;;;;;;5050887;28;20021;-79
2021/06/27 09:56:08;;;;;;;2.60;0.70;;;28.30;65.80;;;;;;5050719;28;20025;-79
2021/06/27 09:58:34;;;;;;;1.88;0.90;;;28.40;68.30;;;;;;5051978;28;20060;-78
2021/06/27 10:01:00;;;;;;;2.35;1.08;;;28.50;66.30;;;;;;5051595;28;20036;-79
2021/06/27 10:03:43;;;;;;;1.25;0.85;;;28.40;66.90;;;;;;5050288;28;20380;-79
2021/06/27 10:06:10;;;;;;;1.05;0.73;;;28.60;63.90;;;;;;5051688;28;20104;-79
2021/06/27 10:08:35;;;;;;;1.08;0.80;;;28.80;67.50;;;;;;5050347;28;20045;-78
2021/06/27 10:11:19;;;;;;;1.30;0.82;;;28.80;65.10;;;;;;5050312;28;20465;-79
2021/06/27 10:13:51;;;;;;;1.13;0.85;;;28.60;64.80;;;;;;5049804;28;20377;-80
2021/06/27 10:16:43;;;;;;;1.30;0.85;;;28.60;67.50;;;;;;5050257;28;20472;-79
2021/06/27 10:19:08;;;;;;;1.92;0.82;;;28.60;65.80;;;;;;5049569;28;20094;-85
2021/06/27 10:21:35;;;;;;;1.38;0.85;;;28.50;65.50;;;;;;5050521;28;20108;-79
2021/06/27 10:24:01;;;;;;;1.20;1.02;;;28.50;68.20;;;;;;5052386;28;20098;-80
2021/06/27 10:26:28;;;;;;;1.23;0.90;;;28.70;68.30;;;;;;5054181;28;20028;-78
2021/06/27 10:28:54;;;;;;;1.77;0.90;;;28.60;66.90;;;;;;5053606;28;20123;-78
2021/06/27 10:31:22;;;;;;;1.85;0.82;;;28.80;67.80;;;;;;5054736;28;20035;-78
2021/06/27 10:33:49;;;;;;;5.65;1.10;;;28.90;66.80;;;;;;5053498;28;20020;-78
2021/06/27 10:36:39;;;;;;;1.65;1.02;;;28.90;66.90;;;;;;5053854;28;20025;-80
2021/06/27 10:39:14;;;;;;;1.00;0.90;;;29.00;66.50;;;;;;5053808;28;20028;-80
2021/06/27 10:42:04;;;;;;;1.50;0.80;;;29.20;65.10;;;;;;5053864;28;20032;-79
2021/06/27 10:44:50;;;;;;;1.40;0.90;;;29.10;61.40;;;;;;5053652;28;20071;-80
2021/06/27 10:47:31;;;;;;;1.40;0.80;;;28.70;63.40;;;;;;5054372;28;20510;-77
2021/06/27 10:49:57;;;;;;;1.42;0.90;;;28.20;64.40;;;;;;5054609;28;20045;-80
2021/06/27 10:52:23;;;;;;;1.52;1.33;;;27.90;68.60;;;;;;5053530;28;20028;-77
2021/06/27 10:55:16;;;;;;;1.42;0.85;;;28.00;72.30;;;;;;5053545;28;20376;-80
2021/06/27 10:57:56;;;;;;;2.20;1.13;;;28.30;66.50;;;;;;5053488;28;20621;-80
2021/06/27 11:00:24;;;;;;;3.35;1.15;;;28.50;67.30;;;;;;5054590;28;20464;-80
2021/06/27 11:02:49;;;;;;;3.38;1.20;;;28.50;66.20;;;;;;5053198;28;20029;-79
2021/06/27 11:05:28;;;;;;;1.33;1.20;;;28.20;65.50;;;;;;5053293;28;20053;-78
2021/06/27 11:07:55;;;;;;;1.88;1.20;;;27.90;66.90;;;;;;5053302;28;20035;-80
2021/06/27 11:10:20;;;;;;;1.00;0.90;;;27.70;68.20;;;;;;5054683;28;20080;-81
2021/06/27 11:12:58;;;;;;;1.40;1.08;;;28.20;69.70;;;;;;5054620;28;20053;-78
2021/06/27 11:15:30;;;;;;;1.20;1.10;;;28.30;66.90;;;;;;5053308;28;20537;-80
2021/06/27 11:18:07;;;;;;;3.17;1.00;;;28.40;67.20;;;;;;5053001;28;20025;-79
2021/06/27 11:20:52;;;;;;;2.70;0.95;;;28.50;68.80;;;;;;5052821;28;20380;-81
2021/06/27 11:23:18;;;;;;;4.15;1.02;;;28.70;70.20;;;;;;5052131;28;20055;-81
2021/06/27 11:25:47;;;;;;;2.90;1.60;;;28.70;69.60;;;;;;5054434;28;20090;-79
2021/06/27 11:28:19;;;;;;;2.65;1.65;;;28.60;68.50;;;;;;5052924;28;20092;-79
2021/06/27 11:30:53;;;;;;;1.15;1.02;;;28.60;68.30;;;;;;5053085;28;20411;-84
2021/06/27 11:33:21;;;;;;;1.70;1.30;;;28.40;68.20;;;;;;5053162;28;20025;-80
2021/06/27 11:35:49;;;;;;;1.77;1.13;;;28.40;68.50;;;;;;5053725;28;20107;-80
2021/06/27 11:38:38;;;;;;;3.65;1.00;;;28.60;71.10;;;;;;5053019;28;20029;-85
2021/06/27 11:41:36;;;;;;;1.17;0.80;;;29.10;67.30;;;;;;5052447;28;20434;-77
2021/06/27 11:44:08;;;;;;;2.13;1.00;;;29.40;66.20;;;;;;5052231;28;20021;-76
2021/06/27 11:46:47;;;;;;;1.05;0.90;;;29.60;66.40;;;;;;5054030;28;20060;-79
2021/06/27 11:49:16;;;;;;;2.25;0.75;;;29.90;64.90;;;;;;5052362;28;20040;-80
2021/06/27 11:51:51;;;;;;;2.28;0.95;;;29.90;61.40;;;;;;5052358;28;20491;-79
2021/06/27 11:54:19;;;;;;;1.45;1.02;;;29.70;60.20;;;;;;5053703;28;20029;-78
2021/06/27 11:57:01;;;;;;;1.08;0.98;;;29.60;61.50;;;;;;5052118;28;20032;-78
2021/06/27 11:59:41;;;;;;;1.92;1.00;;;29.70;62.50;;;;;;5052162;28;20472;-80
2021/06/27 12:02:16;;;;;;;3.47;1.52;;;29.90;66.80;;;;;;5053417;28;20062;-78
2021/06/27 12:04:51;;;;;;;3.97;1.15;;;30.10;65.00;;;;;;5052514;28;20028;-79
2021/06/27 12:07:27;;;;;;;;;;;30.10;64.50;;;;;;5052543;28;20448;-79
2021/06/27 12:09:54;;;;;;;1.52;1.13;;;29.80;63.70;;;;;;5051968;28;19913;-80
2021/06/27 12:12:49;;;;;;;1.73;1.40;;;29.60;65.70;;;;;;5051992;28;20068;-81
2021/06/27 12:15:14;;;;;;;1.77;1.00;;;29.60;64.30;;;;;;5051960;28;20480;-80
2021/06/27 12:17:48;;;;;;;2.85;1.02;;;29.80;65.10;;;;;;5053367;28;20040;-80
2021/06/27 12:20:15;;;;;;;2.33;0.90;;;30.10;64.20;;;;;;5053116;28;20127;-80
2021/06/27 12:22:51;;;;;;;2.50;0.95;;;29.80;62.60;;;;;;5051550;28;20169;-84
2021/06/27 12:25:24;;;;;;;1.83;0.90;;;29.50;63.50;;;;;;5052587;28;20025;-80
2021/06/27 12:27:51;;;;;;;1.52;0.90;;;29.60;64.70;;;;;;5053357;28;20028;-77
2021/06/27 12:30:17;;;;;;;0.98;0.82;;;29.70;66.00;;;;;;5053092;28;20033;-77
2021/06/27 12:33:03;;;;;;;2.25;0.98;;;30.20;65.90;;;;;;5053084;28;20029;-77
2021/06/27 12:35:34;;;;;;;2.22;0.85;;;30.70;63.60;;;;;;5053342;28;20085;-76
2021/06/27 12:38:01;;;;;;;2.88;0.98;;;30.80;63.60;;;;;;5052953;28;20017;-76
2021/06/27 12:40:28;;;;;;;1.45;1.05;;;30.70;63.70;;;;;;5053279;28;20119;-80
2021/06/27 12:42:53;;;;;;;1.38;0.77;;;30.80;61.80;;;;;;5053435;28;20027;-83
2021/06/27 12:45:20;;;;;;;1.30;0.80;;;30.60;60.00;;;;;;5053427;28;20399;-84
2021/06/27 12:47:46;;;;;;;1.20;0.90;;;30.60;61.20;;;;;;5052933;28;20025;-78
2021/06/27 12:50:12;;;;;;;1.95;1.05;;;30.40;62.70;;;;;;5053091;28;20033;-79